sensor_id;sensor_type;location;lat;lon;timestamp;P1;durP1;ratioP1;P2;durP2;ratioP2
18576;SDS011;9418;52.694;13.294;2023-12-29T00:00:37;2.23;;;1.67;;
18576;SDS011;9418;52.694;13.294;2023-12-29T00:03:04;2.07;;;1.60;;
18576;SDS011;9418;52.694;13.294;2023-12-29T00:05:31;1.83;;;1.30;;
18576;SDS011;9418;52.694;13.294;2023-12-29T00:07:59;4.43;;;1.97;;
18576;SDS011;9418;52.694;13.294;2023-12-29T00:10:26;6.70;;;1.80;;
18576;SDS011;9418;52.694;13.294;2023-12-29T00:12:52;3.00;;;1.60;;
18576;SDS011;9418;52.694;13.294;2023-12-29T00:15:19;1.50;;;1.40;;
18576;SDS011;9418;52.694;13.294;2023-12-29T00:17:45;5.17;;;2.03;;
18576;SDS011;9418;52.694;13.294;2023-12-29T00:20:12;2.27;;;2.00;;
18576;SDS011;9418;52.694;13.294;2023-12-29T00:22:38;2.60;;;1.57;;
18576;SDS011;9418;52.694;13.294;2023-12-29T00:25:06;2.23;;;1.57;;
18576;SDS011;9418;52.694;13.294;2023-12-29T00:27:35;4.03;;;1.60;;
18576;SDS011;9418;52.694;13.294;2023-12-29T00:30:01;4.90;;;1.97;;
18576;SDS011;9418;52.694;13.294;2023-12-29T00:32:28;6.60;;;1.60;;
18576;SDS011;9418;52.694;13.294;2023-12-29T00:34:55;1.87;;;1.50;;
18576;SDS011;9418;52.694;13.294;2023-12-29T00:37:21;4.83;;;2.37;;
18576;SDS011;9418;52.694;13.294;2023-12-29T00:39:48;1.80;;;1.47;;
18576;SDS011;9418;52.694;13.294;2023-12-29T00:42:17;1.87;;;1.50;;
18576;SDS011;9418;52.694;13.294;2023-12-29T00:44:43;4.63;;;1.60;;
18576;SDS011;9418;52.694;13.294;2023-12-29T00:47:10;2.93;;;1.43;;
18576;SDS011;9418;52.694;13.294;2023-12-29T00:49:38;3.13;;;1.33;;
18576;SDS011;9418;52.694;13.294;2023-12-29T00:52:05;2.43;;;1.40;;
18576;SDS011;9418;52.694;13.294;2023-12-29T00:54:32;2.40;;;1.67;;
18576;SDS011;9418;52.694;13.294;2023-12-29T00:56:59;1.60;;;1.50;;
18576;SDS011;9418;52.694;13.294;2023-12-29T00:59:26;1.53;;;1.37;;
18576;SDS011;9418;52.694;13.294;2023-12-29T01:01:53;4.10;;;1.20;;
18576;SDS011;9418;52.694;13.294;2023-12-29T01:04:20;2.20;;;1.33;;
18576;SDS011;9418;52.694;13.294;2023-12-29T01:06:46;5.00;;;1.33;;
18576;SDS011;9418;52.694;13.294;2023-12-29T01:09:13;5.67;;;1.40;;
18576;SDS011;9418;52.694;13.294;2023-12-29T01:11:39;3.17;;;1.53;;
18576;SDS011;9418;52.694;13.294;2023-12-29T01:14:06;1.83;;;1.40;;
18576;SDS011;9418;52.694;13.294;2023-12-29T01:16:34;3.67;;;1.83;;
18576;SDS011;9418;52.694;13.294;2023-12-29T01:19:00;2.50;;;1.30;;
18576;SDS011;9418;52.694;13.294;2023-12-29T01:21:27;1.63;;;1.53;;
18576;SDS011;9418;52.694;13.294;2023-12-29T01:23:58;2.10;;;1.50;;
18576;SDS011;9418;52.694;13.294;2023-12-29T01:26:25;1.60;;;1.50;;
18576;SDS011;9418;52.694;13.294;2023-12-29T01:28:52;5.33;;;1.80;;
18576;SDS011;9418;52.694;13.294;2023-12-29T01:31:19;1.50;;;1.40;;
18576;SDS011;9418;52.694;13.294;2023-12-29T01:33:47;2.47;;;1.60;;
18576;SDS011;9418;52.694;13.294;2023-12-29T01:36:16;2.20;;;1.70;;
18576;SDS011;9418;52.694;13.294;2023-12-29T01:38:43;1.10;;;1.00;;
18576;SDS011;9418;52.694;13.294;2023-12-29T01:41:10;2.20;;;1.90;;
18576;SDS011;9418;52.694;13.294;2023-12-29T01:44:02;9.10;;;2.17;;
18576;SDS011;9418;52.694;13.294;2023-12-29T01:46:43;1.83;;;1.20;;
18576;SDS011;9418;52.694;13.294;2023-12-29T01:49:13;1.50;;;1.20;;
18576;SDS011;9418;52.694;13.294;2023-12-29T01:51:41;1.97;;;1.80;;
18576;SDS011;9418;52.694;13.294;2023-12-29T01:54:08;4.17;;;1.50;;
18576;SDS011;9418;52.694;13.294;2023-12-29T01:56:37;4.90;;;1.47;;
18576;SDS011;9418;52.694;13.294;2023-12-29T01:59:04;1.70;;;1.13;;
18576;SDS011;9418;52.694;13.294;2023-12-29T02:01:31;1.40;;;1.30;;
18576;SDS011;9418;52.694;13.294;2023-12-29T02:03:58;2.53;;;1.80;;
18576;SDS011;9418;52.694;13.294;2023-12-29T02:06:26;2.60;;;1.77;;
18576;SDS011;9418;52.694;13.294;2023-12-29T02:08:53;2.60;;;2.40;;
18576;SDS011;9418;52.694;13.294;2023-12-29T02:11:21;1.93;;;1.60;;
18576;SDS011;9418;52.694;13.294;2023-12-29T02:13:47;1.90;;;1.60;;
18576;SDS011;9418;52.694;13.294;2023-12-29T02:16:16;2.77;;;1.63;;
18576;SDS011;9418;52.694;13.294;2023-12-29T02:18:49;2.97;;;1.90;;
18576;SDS011;9418;52.694;13.294;2023-12-29T02:21:17;1.93;;;1.20;;
18576;SDS011;9418;52.694;13.294;2023-12-29T02:23:51;4.13;;;1.93;;
18576;SDS011;9418;52.694;13.294;2023-12-29T02:26:19;2.90;;;1.43;;
18576;SDS011;9418;52.694;13.294;2023-12-29T02:28:56;4.83;;;1.93;;
18576;SDS011;9418;52.694;13.294;2023-12-29T02:31:28;3.60;;;1.60;;
18576;SDS011;9418;52.694;13.294;2023-12-29T02:33:56;1.67;;;1.53;;
18576;SDS011;9418;52.694;13.294;2023-12-29T02:36:24;2.90;;;1.50;;
18576;SDS011;9418;52.694;13.294;2023-12-29T02:38:51;2.73;;;1.47;;
18576;SDS011;9418;52.694;13.294;2023-12-29T02:41:19;3.00;;;1.80;;
18576;SDS011;9418;52.694;13.294;2023-12-29T02:43:46;1.73;;;1.30;;
18576;SDS011;9418;52.694;13.294;2023-12-29T02:46:12;2.70;;;1.63;;
18576;SDS011;9418;52.694;13.294;2023-12-29T02:48:39;5.77;;;1.70;;
18576;SDS011;9418;52.694;13.294;2023-12-29T02:51:05;1.37;;;1.27;;
18576;SDS011;9418;52.694;13.294;2023-12-29T02:53:33;2.40;;;1.73;;
18576;SDS011;9418;52.694;13.294;2023-12-29T02:56:00;1.80;;;1.67;;
18576;SDS011;9418;52.694;13.294;2023-12-29T02:58:28;2.50;;;1.40;;
18576;SDS011;9418;52.694;13.294;2023-12-29T03:00:54;5.27;;;1.70;;
18576;SDS011;9418;52.694;13.294;2023-12-29T03:03:21;1.70;;;1.60;;
18576;SDS011;9418;52.694;13.294;2023-12-29T03:05:47;1.67;;;1.57;;
18576;SDS011;9418;52.694;13.294;2023-12-29T03:08:14;4.03;;;1.80;;
18576;SDS011;9418;52.694;13.294;2023-12-29T03:10:40;2.90;;;1.53;;
18576;SDS011;9418;52.694;13.294;2023-12-29T03:13:07;2.63;;;1.47;;
18576;SDS011;9418;52.694;13.294;2023-12-29T03:15:35;2.00;;;1.67;;
18576;SDS011;9418;52.694;13.294;2023-12-29T03:18:01;2.40;;;1.80;;
18576;SDS011;9418;52.694;13.294;2023-12-29T03:20:28;2.30;;;1.77;;
18576;SDS011;9418;52.694;13.294;2023-12-29T03:22:55;1.87;;;1.53;;
18576;SDS011;9418;52.694;13.294;2023-12-29T03:25:22;1.77;;;1.30;;
18576;SDS011;9418;52.694;13.294;2023-12-29T03:27:48;2.17;;;1.70;;
18576;SDS011;9418;52.694;13.294;2023-12-29T03:30:15;2.00;;;1.80;;
18576;SDS011;9418;52.694;13.294;2023-12-29T03:32:43;1.67;;;1.43;;
18576;SDS011;9418;52.694;13.294;2023-12-29T03:35:10;4.53;;;1.40;;
18576;SDS011;9418;52.694;13.294;2023-12-29T03:37:37;2.37;;;2.00;;
18576;SDS011;9418;52.694;13.294;2023-12-29T03:40:04;2.00;;;1.23;;
18576;SDS011;9418;52.694;13.294;2023-12-29T03:42:32;4.00;;;1.60;;
18576;SDS011;9418;52.694;13.294;2023-12-29T03:44:59;1.10;;;1.10;;
18576;SDS011;9418;52.694;13.294;2023-12-29T03:47:25;2.80;;;1.90;;
18576;SDS011;9418;52.694;13.294;2023-12-29T03:49:54;2.77;;;1.80;;
18576;SDS011;9418;52.694;13.294;2023-12-29T03:52:20;1.73;;;1.50;;
18576;SDS011;9418;52.694;13.294;2023-12-29T03:54:47;4.00;;;1.30;;
18576;SDS011;9418;52.694;13.294;2023-12-29T03:57:14;4.03;;;1.60;;
18576;SDS011;9418;52.694;13.294;2023-12-29T03:59:40;2.10;;;1.90;;
18576;SDS011;9418;52.694;13.294;2023-12-29T04:02:07;1.67;;;1.57;;
18576;SDS011;9418;52.694;13.294;2023-12-29T04:04:35;1.53;;;1.43;;
18576;SDS011;9418;52.694;13.294;2023-12-29T04:07:04;1.90;;;1.33;;
18576;SDS011;9418;52.694;13.294;2023-12-29T04:09:30;1.40;;;1.30;;
18576;SDS011;9418;52.694;13.294;2023-12-29T04:11:57;1.60;;;1.37;;
18576;SDS011;9418;52.694;13.294;2023-12-29T04:14:24;1.90;;;1.43;;
18576;SDS011;9418;52.694;13.294;2023-12-29T04:16:50;3.70;;;1.10;;
18576;SDS011;9418;52.694;13.294;2023-12-29T04:19:17;2.23;;;1.50;;
18576;SDS011;9418;52.694;13.294;2023-12-29T04:21:44;3.37;;;1.60;;
18576;SDS011;9418;52.694;13.294;2023-12-29T04:24:11;2.40;;;1.30;;
18576;SDS011;9418;52.694;13.294;2023-12-29T04:26:38;2.63;;;1.67;;
18576;SDS011;9418;52.694;13.294;2023-12-29T04:29:05;2.50;;;1.53;;
18576;SDS011;9418;52.694;13.294;2023-12-29T04:31:31;1.63;;;1.53;;
18576;SDS011;9418;52.694;13.294;2023-12-29T04:33:58;2.20;;;1.20;;
18576;SDS011;9418;52.694;13.294;2023-12-29T04:36:24;1.87;;;1.77;;
18576;SDS011;9418;52.694;13.294;2023-12-29T04:38:51;1.87;;;1.23;;
18576;SDS011;9418;52.694;13.294;2023-12-29T04:41:19;2.93;;;1.57;;
18576;SDS011;9418;52.694;13.294;2023-12-29T04:43:45;1.60;;;1.50;;
18576;SDS011;9418;52.694;13.294;2023-12-29T04:46:12;2.50;;;1.40;;
18576;SDS011;9418;52.694;13.294;2023-12-29T04:48:38;6.83;;;1.80;;
18576;SDS011;9418;52.694;13.294;2023-12-29T04:51:05;4.63;;;1.70;;
18576;SDS011;9418;52.694;13.294;2023-12-29T04:53:31;2.03;;;1.40;;
18576;SDS011;9418;52.694;13.294;2023-12-29T04:55:58;2.30;;;1.20;;
18576;SDS011;9418;52.694;13.294;2023-12-29T04:58:26;3.13;;;1.20;;
18576;SDS011;9418;52.694;13.294;2023-12-29T05:00:52;1.23;;;1.10;;
18576;SDS011;9418;52.694;13.294;2023-12-29T05:03:19;2.57;;;1.20;;
18576;SDS011;9418;52.694;13.294;2023-12-29T05:05:46;1.93;;;1.30;;
18576;SDS011;9418;52.694;13.294;2023-12-29T05:08:12;4.70;;;1.30;;
18576;SDS011;9418;52.694;13.294;2023-12-29T05:10:39;2.23;;;1.33;;
18576;SDS011;9418;52.694;13.294;2023-12-29T05:13:05;1.20;;;1.10;;
18576;SDS011;9418;52.694;13.294;2023-12-29T05:15:33;1.63;;;1.00;;
18576;SDS011;9418;52.694;13.294;2023-12-29T05:18:00;2.53;;;1.30;;
18576;SDS011;9418;52.694;13.294;2023-12-29T05:20:26;2.07;;;1.10;;
18576;SDS011;9418;52.694;13.294;2023-12-29T05:22:53;3.53;;;1.33;;
18576;SDS011;9418;52.694;13.294;2023-12-29T05:25:20;1.47;;;1.00;;
18576;SDS011;9418;52.694;13.294;2023-12-29T05:27:48;6.00;;;1.20;;
18576;SDS011;9418;52.694;13.294;2023-12-29T05:30:15;1.13;;;1.00;;
18576;SDS011;9418;52.694;13.294;2023-12-29T05:32:43;3.23;;;1.30;;
18576;SDS011;9418;52.694;13.294;2023-12-29T05:35:09;1.73;;;1.27;;
18576;SDS011;9418;52.694;13.294;2023-12-29T05:37:36;1.03;;;0.93;;
18576;SDS011;9418;52.694;13.294;2023-12-29T05:40:03;1.80;;;0.90;;
18576;SDS011;9418;52.694;13.294;2023-12-29T05:42:30;5.90;;;1.23;;
18576;SDS011;9418;52.694;13.294;2023-12-29T05:44:56;3.50;;;1.73;;
18576;SDS011;9418;52.694;13.294;2023-12-29T05:47:23;3.00;;;1.23;;
18576;SDS011;9418;52.694;13.294;2023-12-29T05:49:51;1.10;;;1.00;;
18576;SDS011;9418;52.694;13.294;2023-12-29T05:52:18;2.03;;;1.20;;
18576;SDS011;9418;52.694;13.294;2023-12-29T05:54:44;1.20;;;1.10;;
18576;SDS011;9418;52.694;13.294;2023-12-29T05:57:11;1.23;;;1.13;;
18576;SDS011;9418;52.694;13.294;2023-12-29T05:59:38;2.50;;;1.20;;
18576;SDS011;9418;52.694;13.294;2023-12-29T06:02:06;3.07;;;0.90;;
18576;SDS011;9418;52.694;13.294;2023-12-29T06:04:39;2.50;;;1.10;;
18576;SDS011;9418;52.694;13.294;2023-12-29T06:07:07;3.70;;;1.20;;
18576;SDS011;9418;52.694;13.294;2023-12-29T06:09:34;2.53;;;1.30;;
18576;SDS011;9418;52.694;13.294;2023-12-29T06:12:00;1.53;;;1.20;;
18576;SDS011;9418;52.694;13.294;2023-12-29T06:14:27;1.03;;;0.93;;
18576;SDS011;9418;52.694;13.294;2023-12-29T06:16:53;3.17;;;1.60;;
18576;SDS011;9418;52.694;13.294;2023-12-29T06:19:20;1.53;;;0.93;;
18576;SDS011;9418;52.694;13.294;2023-12-29T06:21:47;2.03;;;0.90;;
18576;SDS011;9418;52.694;13.294;2023-12-29T06:24:15;0.90;;;0.90;;
18576;SDS011;9418;52.694;13.294;2023-12-29T06:26:41;6.10;;;1.03;;
18576;SDS011;9418;52.694;13.294;2023-12-29T06:29:09;3.23;;;1.00;;
18576;SDS011;9418;52.694;13.294;2023-12-29T06:31:36;1.43;;;1.10;;
18576;SDS011;9418;52.694;13.294;2023-12-29T06:34:06;1.20;;;0.97;;
18576;SDS011;9418;52.694;13.294;2023-12-29T06:36:33;4.30;;;1.57;;
18576;SDS011;9418;52.694;13.294;2023-12-29T06:38:59;1.20;;;1.10;;
18576;SDS011;9418;52.694;13.294;2023-12-29T06:41:27;2.07;;;1.23;;
18576;SDS011;9418;52.694;13.294;2023-12-29T06:43:54;1.63;;;1.20;;
18576;SDS011;9418;52.694;13.294;2023-12-29T06:46:20;1.10;;;0.93;;
18576;SDS011;9418;52.694;13.294;2023-12-29T06:48:47;2.00;;;0.90;;
18576;SDS011;9418;52.694;13.294;2023-12-29T06:51:16;1.33;;;1.00;;
18576;SDS011;9418;52.694;13.294;2023-12-29T06:53:43;1.07;;;0.90;;
18576;SDS011;9418;52.694;13.294;2023-12-29T06:56:12;1.20;;;0.90;;
18576;SDS011;9418;52.694;13.294;2023-12-29T06:58:40;0.90;;;0.90;;
18576;SDS011;9418;52.694;13.294;2023-12-29T07:01:07;1.83;;;1.03;;
18576;SDS011;9418;52.694;13.294;2023-12-29T07:03:34;3.17;;;1.20;;
18576;SDS011;9418;52.694;13.294;2023-12-29T07:06:00;1.53;;;1.43;;
18576;SDS011;9418;52.694;13.294;2023-12-29T07:08:27;4.63;;;1.00;;
18576;SDS011;9418;52.694;13.294;2023-12-29T07:10:54;1.53;;;1.10;;
18576;SDS011;9418;52.694;13.294;2023-12-29T07:13:20;3.60;;;1.30;;
18576;SDS011;9418;52.694;13.294;2023-12-29T07:15:48;3.67;;;1.20;;
18576;SDS011;9418;52.694;13.294;2023-12-29T07:18:15;3.43;;;1.70;;
18576;SDS011;9418;52.694;13.294;2023-12-29T07:20:42;1.40;;;1.00;;
18576;SDS011;9418;52.694;13.294;2023-12-29T07:23:08;1.17;;;1.10;;
18576;SDS011;9418;52.694;13.294;2023-12-29T07:25:35;2.23;;;1.10;;
18576;SDS011;9418;52.694;13.294;2023-12-29T07:28:02;1.13;;;0.80;;
18576;SDS011;9418;52.694;13.294;2023-12-29T07:30:28;1.40;;;1.30;;
18576;SDS011;9418;52.694;13.294;2023-12-29T07:33:01;1.17;;;1.10;;
18576;SDS011;9418;52.694;13.294;2023-12-29T07:35:31;3.03;;;1.30;;
18576;SDS011;9418;52.694;13.294;2023-12-29T07:38:06;1.20;;;1.10;;
18576;SDS011;9418;52.694;13.294;2023-12-29T07:40:44;1.57;;;1.30;;
18576;SDS011;9418;52.694;13.294;2023-12-29T07:43:12;2.00;;;1.30;;
18576;SDS011;9418;52.694;13.294;2023-12-29T07:45:39;3.40;;;1.27;;
18576;SDS011;9418;52.694;13.294;2023-12-29T07:48:09;2.37;;;1.00;;
18576;SDS011;9418;52.694;13.294;2023-12-29T07:50:36;2.87;;;1.20;;
18576;SDS011;9418;52.694;13.294;2023-12-29T07:53:02;1.20;;;1.10;;
18576;SDS011;9418;52.694;13.294;2023-12-29T07:55:31;1.27;;;1.17;;
18576;SDS011;9418;52.694;13.294;2023-12-29T07:57:57;1.03;;;0.93;;
18576;SDS011;9418;52.694;13.294;2023-12-29T08:00:24;2.60;;;1.20;;
18576;SDS011;9418;52.694;13.294;2023-12-29T08:02:51;4.20;;;1.27;;
18576;SDS011;9418;52.694;13.294;2023-12-29T08:05:19;2.80;;;1.30;;
18576;SDS011;9418;52.694;13.294;2023-12-29T08:07:46;1.13;;;1.10;;
18576;SDS011;9418;52.694;13.294;2023-12-29T08:10:12;1.43;;;1.00;;
18576;SDS011;9418;52.694;13.294;2023-12-29T08:12:39;1.53;;;1.37;;
18576;SDS011;9418;52.694;13.294;2023-12-29T08:15:06;1.93;;;1.07;;
18576;SDS011;9418;52.694;13.294;2023-12-29T08:17:32;2.40;;;1.03;;
18576;SDS011;9418;52.694;13.294;2023-12-29T08:19:59;1.20;;;1.10;;
18576;SDS011;9418;52.694;13.294;2023-12-29T08:22:29;1.57;;;1.30;;
18576;SDS011;9418;52.694;13.294;2023-12-29T08:24:57;1.50;;;1.40;;
18576;SDS011;9418;52.694;13.294;2023-12-29T08:27:24;2.50;;;1.33;;
18576;SDS011;9418;52.694;13.294;2023-12-29T08:29:51;4.23;;;1.30;;
18576;SDS011;9418;52.694;13.294;2023-12-29T08:32:18;2.40;;;1.60;;
18576;SDS011;9418;52.694;13.294;2023-12-29T08:34:45;1.40;;;1.40;;
18576;SDS011;9418;52.694;13.294;2023-12-29T08:37:12;2.37;;;1.43;;
18576;SDS011;9418;52.694;13.294;2023-12-29T08:39:42;1.50;;;1.37;;
18576;SDS011;9418;52.694;13.294;2023-12-29T08:42:08;1.93;;;1.77;;
18576;SDS011;9418;52.694;13.294;2023-12-29T08:44:35;2.40;;;1.20;;
18576;SDS011;9418;52.694;13.294;2023-12-29T08:47:01;3.93;;;1.50;;
18576;SDS011;9418;52.694;13.294;2023-12-29T08:49:28;3.03;;;1.27;;
18576;SDS011;9418;52.694;13.294;2023-12-29T08:51:55;2.77;;;1.10;;
18576;SDS011;9418;52.694;13.294;2023-12-29T08:54:21;3.37;;;1.10;;
18576;SDS011;9418;52.694;13.294;2023-12-29T08:56:49;4.17;;;1.20;;
18576;SDS011;9418;52.694;13.294;2023-12-29T08:59:16;3.50;;;1.23;;
18576;SDS011;9418;52.694;13.294;2023-12-29T09:01:42;1.20;;;1.00;;
18576;SDS011;9418;52.694;13.294;2023-12-29T09:04:09;4.47;;;1.47;;
18576;SDS011;9418;52.694;13.294;2023-12-29T09:06:36;5.70;;;1.70;;
18576;SDS011;9418;52.694;13.294;2023-12-29T09:09:02;3.40;;;1.50;;
18576;SDS011;9418;52.694;13.294;2023-12-29T09:11:29;3.87;;;1.20;;
18576;SDS011;9418;52.694;13.294;2023-12-29T09:13:57;3.03;;;1.20;;
18576;SDS011;9418;52.694;13.294;2023-12-29T09:16:23;3.40;;;1.40;;
18576;SDS011;9418;52.694;13.294;2023-12-29T09:18:50;3.07;;;1.20;;
18576;SDS011;9418;52.694;13.294;2023-12-29T09:21:16;2.90;;;1.27;;
18576;SDS011;9418;52.694;13.294;2023-12-29T09:23:43;1.67;;;1.10;;
18576;SDS011;9418;52.694;13.294;2023-12-29T09:26:10;3.17;;;1.67;;
18576;SDS011;9418;52.694;13.294;2023-12-29T09:28:36;5.50;;;1.47;;
18576;SDS011;9418;52.694;13.294;2023-12-29T09:31:04;2.70;;;1.60;;
18576;SDS011;9418;52.694;13.294;2023-12-29T09:33:31;1.93;;;1.53;;
18576;SDS011;9418;52.694;13.294;2023-12-29T09:35:57;4.13;;;1.50;;
18576;SDS011;9418;52.694;13.294;2023-12-29T09:38:24;3.37;;;1.47;;
18576;SDS011;9418;52.694;13.294;2023-12-29T09:40:50;4.50;;;1.43;;
18576;SDS011;9418;52.694;13.294;2023-12-29T09:43:19;2.87;;;1.40;;
18576;SDS011;9418;52.694;13.294;2023-12-29T09:45:46;1.90;;;1.37;;
18576;SDS011;9418;52.694;13.294;2023-12-29T09:48:15;1.50;;;1.10;;
18576;SDS011;9418;52.694;13.294;2023-12-29T09:50:44;2.90;;;2.00;;
18576;SDS011;9418;52.694;13.294;2023-12-29T09:53:12;2.73;;;1.37;;
18576;SDS011;9418;52.694;13.294;2023-12-29T09:55:40;1.47;;;1.10;;
18576;SDS011;9418;52.694;13.294;2023-12-29T09:58:11;2.57;;;1.43;;
18576;SDS011;9418;52.694;13.294;2023-12-29T10:00:39;3.80;;;1.53;;
18576;SDS011;9418;52.694;13.294;2023-12-29T10:03:06;1.93;;;1.13;;
18576;SDS011;9418;52.694;13.294;2023-12-29T10:05:35;2.40;;;1.53;;
18576;SDS011;9418;52.694;13.294;2023-12-29T10:08:02;4.50;;;1.47;;
18576;SDS011;9418;52.694;13.294;2023-12-29T10:10:31;4.40;;;1.80;;
18576;SDS011;9418;52.694;13.294;2023-12-29T10:12:59;1.80;;;1.50;;
18576;SDS011;9418;52.694;13.294;2023-12-29T10:15:28;4.43;;;1.60;;
18576;SDS011;9418;52.694;13.294;2023-12-29T10:18:06;6.00;;;1.60;;
18576;SDS011;9418;52.694;13.294;2023-12-29T10:20:41;1.70;;;1.60;;
18576;SDS011;9418;52.694;13.294;2023-12-29T10:23:11;3.13;;;2.10;;
18576;SDS011;9418;52.694;13.294;2023-12-29T10:25:43;3.43;;;1.53;;
18576;SDS011;9418;52.694;13.294;2023-12-29T10:28:09;5.43;;;1.97;;
18576;SDS011;9418;52.694;13.294;2023-12-29T10:30:36;5.23;;;1.90;;
18576;SDS011;9418;52.694;13.294;2023-12-29T10:33:03;2.40;;;1.30;;
18576;SDS011;9418;52.694;13.294;2023-12-29T10:35:30;1.80;;;1.70;;
18576;SDS011;9418;52.694;13.294;2023-12-29T10:38:08;4.33;;;1.80;;
18576;SDS011;9418;52.694;13.294;2023-12-29T10:40:36;7.30;;;2.03;;
18576;SDS011;9418;52.694;13.294;2023-12-29T10:43:03;6.63;;;2.57;;
18576;SDS011;9418;52.694;13.294;2023-12-29T10:45:31;4.07;;;1.63;;
18576;SDS011;9418;52.694;13.294;2023-12-29T10:47:58;6.67;;;2.10;;
18576;SDS011;9418;52.694;13.294;2023-12-29T10:50:26;10.40;;;2.20;;
18576;SDS011;9418;52.694;13.294;2023-12-29T10:52:55;4.37;;;2.20;;
18576;SDS011;9418;52.694;13.294;2023-12-29T10:55:38;5.53;;;1.70;;
18576;SDS011;9418;52.694;13.294;2023-12-29T10:58:04;3.00;;;2.00;;
18576;SDS011;9418;52.694;13.294;2023-12-29T11:00:32;6.07;;;2.40;;
18576;SDS011;9418;52.694;13.294;2023-12-29T11:02:58;2.90;;;2.30;;
18576;SDS011;9418;52.694;13.294;2023-12-29T11:05:25;1.90;;;1.70;;
18576;SDS011;9418;52.694;13.294;2023-12-29T11:07:53;4.20;;;1.70;;
18576;SDS011;9418;52.694;13.294;2023-12-29T11:10:22;5.63;;;1.80;;
18576;SDS011;9418;52.694;13.294;2023-12-29T11:12:48;7.90;;;1.87;;
18576;SDS011;9418;52.694;13.294;2023-12-29T11:15:16;2.83;;;1.57;;
18576;SDS011;9418;52.694;13.294;2023-12-29T11:17:43;2.47;;;1.43;;
18576;SDS011;9418;52.694;13.294;2023-12-29T11:20:14;2.57;;;1.43;;
18576;SDS011;9418;52.694;13.294;2023-12-29T11:22:42;7.60;;;1.53;;
18576;SDS011;9418;52.694;13.294;2023-12-29T11:25:09;2.13;;;1.33;;
18576;SDS011;9418;52.694;13.294;2023-12-29T11:27:39;4.73;;;2.20;;
18576;SDS011;9418;52.694;13.294;2023-12-29T11:30:06;3.37;;;1.80;;
18576;SDS011;9418;52.694;13.294;2023-12-29T11:32:37;3.60;;;2.23;;
18576;SDS011;9418;52.694;13.294;2023-12-29T11:35:13;5.70;;;1.93;;
18576;SDS011;9418;52.694;13.294;2023-12-29T11:37:58;10.30;;;1.83;;
18576;SDS011;9418;52.694;13.294;2023-12-29T11:40:33;2.97;;;1.60;;
18576;SDS011;9418;52.694;13.294;2023-12-29T11:43:07;3.63;;;1.57;;
18576;SDS011;9418;52.694;13.294;2023-12-29T11:45:41;4.80;;;1.77;;
18576;SDS011;9418;52.694;13.294;2023-12-29T11:48:07;3.47;;;1.23;;
18576;SDS011;9418;52.694;13.294;2023-12-29T11:50:36;5.70;;;1.37;;
18576;SDS011;9418;52.694;13.294;2023-12-29T11:53:05;7.03;;;2.13;;
18576;SDS011;9418;52.694;13.294;2023-12-29T11:55:33;4.50;;;1.27;;
18576;SDS011;9418;52.694;13.294;2023-12-29T11:58:01;4.07;;;2.13;;
18576;SDS011;9418;52.694;13.294;2023-12-29T12:00:43;3.53;;;1.90;;
18576;SDS011;9418;52.694;13.294;2023-12-29T12:03:14;7.03;;;1.57;;
18576;SDS011;9418;52.694;13.294;2023-12-29T12:05:46;5.70;;;2.00;;
18576;SDS011;9418;52.694;13.294;2023-12-29T12:08:26;3.83;;;2.00;;
18576;SDS011;9418;52.694;13.294;2023-12-29T12:10:54;3.43;;;1.73;;
18576;SDS011;9418;52.694;13.294;2023-12-29T12:16:11;6.10;;;1.33;;
18576;SDS011;9418;52.694;13.294;2023-12-29T12:19:13;7.07;;;1.63;;
18576;SDS011;9418;52.694;13.294;2023-12-29T12:21:40;5.00;;;2.07;;
18576;SDS011;9418;52.694;13.294;2023-12-29T12:24:07;4.73;;;2.07;;
18576;SDS011;9418;52.694;13.294;2023-12-29T12:26:34;3.70;;;1.40;;
18576;SDS011;9418;52.694;13.294;2023-12-29T12:29:00;4.50;;;1.43;;
18576;SDS011;9418;52.694;13.294;2023-12-29T12:31:29;3.80;;;1.47;;
18576;SDS011;9418;52.694;13.294;2023-12-29T12:33:55;3.40;;;1.80;;
18576;SDS011;9418;52.694;13.294;2023-12-29T12:36:23;3.30;;;1.23;;
18576;SDS011;9418;52.694;13.294;2023-12-29T12:38:51;6.73;;;1.73;;
18576;SDS011;9418;52.694;13.294;2023-12-29T12:41:18;3.03;;;1.07;;
18576;SDS011;9418;52.694;13.294;2023-12-29T12:43:47;3.07;;;1.07;;
18576;SDS011;9418;52.694;13.294;2023-12-29T12:46:21;3.90;;;1.30;;
18576;SDS011;9418;52.694;13.294;2023-12-29T12:48:51;4.83;;;1.47;;
18576;SDS011;9418;52.694;13.294;2023-12-29T12:51:20;3.43;;;1.20;;
18576;SDS011;9418;52.694;13.294;2023-12-29T12:53:47;3.53;;;1.20;;
18576;SDS011;9418;52.694;13.294;2023-12-29T12:56:15;4.40;;;1.23;;
18576;SDS011;9418;52.694;13.294;2023-12-29T12:58:44;2.70;;;1.00;;
18576;SDS011;9418;52.694;13.294;2023-12-29T13:01:10;3.27;;;1.20;;
18576;SDS011;9418;52.694;13.294;2023-12-29T13:03:37;3.07;;;1.30;;
18576;SDS011;9418;52.694;13.294;2023-12-29T13:06:06;4.10;;;1.00;;
18576;SDS011;9418;52.694;13.294;2023-12-29T13:08:33;2.60;;;1.10;;
18576;SDS011;9418;52.694;13.294;2023-12-29T13:11:00;1.83;;;0.87;;
18576;SDS011;9418;52.694;13.294;2023-12-29T13:13:34;1.60;;;1.03;;
18576;SDS011;9418;52.694;13.294;2023-12-29T13:16:02;4.07;;;1.40;;
18576;SDS011;9418;52.694;13.294;2023-12-29T13:18:29;2.20;;;1.33;;
18576;SDS011;9418;52.694;13.294;2023-12-29T13:20:56;2.30;;;1.87;;
18576;SDS011;9418;52.694;13.294;2023-12-29T13:23:26;2.30;;;1.33;;
18576;SDS011;9418;52.694;13.294;2023-12-29T13:25:54;3.90;;;1.83;;
18576;SDS011;9418;52.694;13.294;2023-12-29T13:28:22;3.13;;;1.70;;
18576;SDS011;9418;52.694;13.294;2023-12-29T13:30:49;10.73;;;1.83;;
18576;SDS011;9418;52.694;13.294;2023-12-29T13:33:18;6.87;;;1.83;;
18576;SDS011;9418;52.694;13.294;2023-12-29T13:35:56;7.93;;;1.90;;
18576;SDS011;9418;52.694;13.294;2023-12-29T13:38:35;7.57;;;2.57;;
18576;SDS011;9418;52.694;13.294;2023-12-29T13:41:09;3.63;;;2.30;;
18576;SDS011;9418;52.694;13.294;2023-12-29T13:43:38;5.03;;;2.47;;
18576;SDS011;9418;52.694;13.294;2023-12-29T13:46:07;5.70;;;3.27;;
18576;SDS011;9418;52.694;13.294;2023-12-29T13:48:37;5.80;;;3.40;;
18576;SDS011;9418;52.694;13.294;2023-12-29T13:51:05;4.37;;;3.47;;
18576;SDS011;9418;52.694;13.294;2023-12-29T13:53:31;5.23;;;3.73;;
18576;SDS011;9418;52.694;13.294;2023-12-29T13:56:07;3.90;;;2.50;;
18576;SDS011;9418;52.694;13.294;2023-12-29T13:58:34;5.60;;;3.20;;
18576;SDS011;9418;52.694;13.294;2023-12-29T14:01:00;4.20;;;3.60;;
18576;SDS011;9418;52.694;13.294;2023-12-29T14:03:30;4.33;;;2.80;;
18576;SDS011;9418;52.694;13.294;2023-12-29T14:06:00;4.63;;;2.00;;
18576;SDS011;9418;52.694;13.294;2023-12-29T14:08:31;7.57;;;2.07;;
18576;SDS011;9418;52.694;13.294;2023-12-29T14:10:59;2.83;;;1.97;;
18576;SDS011;9418;52.694;13.294;2023-12-29T14:13:28;3.60;;;2.57;;
18576;SDS011;9418;52.694;13.294;2023-12-29T14:15:56;2.93;;;1.97;;
18576;SDS011;9418;52.694;13.294;2023-12-29T14:18:29;5.13;;;1.60;;
18576;SDS011;9418;52.694;13.294;2023-12-29T14:21:19;5.40;;;1.60;;
18576;SDS011;9418;52.694;13.294;2023-12-29T14:23:56;1.63;;;1.30;;
18576;SDS011;9418;52.694;13.294;2023-12-29T14:26:33;5.10;;;1.60;;
18576;SDS011;9418;52.694;13.294;2023-12-29T14:29:02;4.20;;;1.70;;
18576;SDS011;9418;52.694;13.294;2023-12-29T14:31:31;2.60;;;1.30;;
18576;SDS011;9418;52.694;13.294;2023-12-29T14:34:02;3.60;;;1.60;;
18576;SDS011;9418;52.694;13.294;2023-12-29T14:36:29;2.80;;;1.60;;
18576;SDS011;9418;52.694;13.294;2023-12-29T14:38:57;3.93;;;1.40;;
18576;SDS011;9418;52.694;13.294;2023-12-29T14:41:23;1.27;;;1.17;;
18576;SDS011;9418;52.694;13.294;2023-12-29T14:43:50;1.80;;;1.50;;
18576;SDS011;9418;52.694;13.294;2023-12-29T14:46:18;1.60;;;1.20;;
18576;SDS011;9418;52.694;13.294;2023-12-29T14:48:45;4.07;;;1.17;;
18576;SDS011;9418;52.694;13.294;2023-12-29T14:51:11;3.20;;;1.13;;
18576;SDS011;9418;52.694;13.294;2023-12-29T14:53:38;1.57;;;1.23;;
18576;SDS011;9418;52.694;13.294;2023-12-29T14:56:05;1.57;;;1.20;;